Baependi, Brazil
Current Conditions -  °F | °C
As of 6:00 AM on Thursday 18 Dec 2014 (Local Time) from SBGW Reporting Station
Clear Clear  
Wind Chill: 68°   Ceiling: Unl
Heat Index: 68°   Visibility: 6mi
Dew Point: 61°   Wind: 3mph
Humidity: 78%   Direction: 30°NNE
Pressure: 29.88"   Gusts: NA
Location:  21.96°S, 44.89°W
Report Text: SBGW 180800Z 03003KT CAVOK 20/16 Q1012
Loading
Personal Weather Stations






























Interactive Weather Map New forecast layout! Learn more

10-Day Weather Forecast

Advertisements
Track Severe Weather on mobile